KTVC/TVC METAR and TAF weather

Enter ICAO airport designator
Station Type Date Time Source
KTVC METAR 2018/12/15 20:53 UTC NOAA

KTVC 152053Z 00000KT 10SM FEW040 FEW250 06/00 A3019 RMK AO2 SLP229 T00610000 53001


Station Type Date Time Source
KTVC Decoded METAR 2018/12/15 20:53 UTC NOAA

CHERRY CAPITAL AIRPORT, MI, United States (KTVC) 44-44N 085-34W 190M
Dec 15, 2018 - 03:53 PM EST / 2018.12.15 2053 UTC
Wind: Calm:0
Visibility: 10 mile(s):0
Sky conditions: mostly clear
Temperature: 43.0 F (6.1 C)
Dew Point: 32.0 F (0.0 C)
Relative Humidity: 64%
Pressure (altimeter): 30.19 in. Hg (1022 hPa)
Pressure tendency: 0.00 inches (0.1 hPa) higher than three hours ago
ob: KTVC 152053Z 00000KT 10SM FEW040 FEW250 06/00 A3019 RMK AO2 SLP229 T00610000 53001
cycle: 21

Station Type Date Time Source
KTVC TAF 2018/12/15 18:46 UTC NOAA

TAF KTVC 151744Z 1518/1618 00000KT P6SM FEW150
FM160900 VRB04KT P6SM FEW008
FM161100 17005KT P6SM FEW250
FM161600 20006KT P6SM FEW250


Example: see airport list